Observation data for Andrews on 05/15/2018      Previous  Date  Next       Current Mesonet Observations  Soil Data  Daily Summary Page  Observations in Plain Language
KANS 150500Z 15010G16KT 23/16 A2996 RMK A01 T02290160  RH  066%=      5-min Rain = 0
KANS 150505Z 16010KT 23/16 A2996 RMK A01 T02280160  RH  067%=      5-min Rain = 0
KANS 150510Z 15010KT 23/16 A2996 RMK A01 T02270161  RH  068%=      5-min Rain = 0
KANS 150515Z 15010G16KT 23/16 A2996 RMK A01 T02260161  RH  069%=      5-min Rain = 0
KANS 150520Z 15010KT 22/16 A2996 RMK A01 T02240162  RH  069%=      5-min Rain = 0
KANS 150525Z 16009KT 22/16 A2996 RMK A01 T02230162  RH  070%=      5-min Rain = 0
KANS 150530Z 15009G14KT 22/16 A2997 RMK A01 T02220162  RH  070%=      5-min Rain = 0
KANS 150535Z 15010KT 22/16 A2997 RMK A01 T02210163  RH  071%=      5-min Rain = 0
KANS 150540Z 15009KT 22/16 A2997 RMK A01 T02200162  RH  071%=      5-min Rain = 0
KANS 150545Z 15009G15KT 22/16 A2997 RMK A01 T02190163  RH  072%=      5-min Rain = 0
KANS 150550Z 15011KT 22/16 A2997 RMK A01 T02180163  RH  072%=      5-min Rain = 0
KANS 150555Z 15009KT 22/16 A2997 RMK A01 T02180163  RH  073%=      5-min Rain = 0
KANS 150600Z 15009KT 22/16 A2997 RMK A01 T02160163  RH  073%=      5-min Rain = 0
KANS 150605Z 15010KT 22/16 A2997 RMK A01 T02150164  RH  074%=      5-min Rain = 0
KANS 150610Z 16009G14KT 21/16 A2997 RMK A01 T02140164  RH  075%=      5-min Rain = 0
KANS 150615Z 15009KT 21/16 A2997 RMK A01 T02130164  RH  075%=      5-min Rain = 0
KANS 150620Z 15009G14KT 21/16 A2997 RMK A01 T02120164  RH  076%=      5-min Rain = 0
KANS 150625Z 16009KT 21/17 A2997 RMK A01 T02120165  RH  076%=      5-min Rain = 0
KANS 150630Z 16010KT 21/17 A2997 RMK A01 T02110165  RH  077%=      5-min Rain = 0
KANS 150635Z 15010KT 21/17 A2997 RMK A01 T02110165  RH  077%=      5-min Rain = 0
KANS 150640Z 15010G16KT 21/17 A2997 RMK A01 T02100165  RH  077%=      5-min Rain = 0
KANS 150645Z 15010KT 21/17 A2997 RMK A01 T02090165  RH  078%=      5-min Rain = 0
KANS 150650Z 15010KT 21/17 A2997 RMK A01 T02090165  RH  078%=      5-min Rain = 0
KANS 150655Z 15011G18KT 21/17 A2997 RMK A01 T02080165  RH  078%=      5-min Rain = 0
KANS 150700Z 15012KT 21/17 A2997 RMK A01 T02070166  RH  079%=      5-min Rain = 0
KANS 150705Z 15012KT 21/17 A2997 RMK A01 T02070166  RH  079%=      5-min Rain = 0
KANS 150710Z 15011G16KT 21/17 A2997 RMK A01 T02070167  RH  080%=      5-min Rain = 0
KANS 150715Z 15011G16KT 21/17 A2997 RMK A01 T02060167  RH  080%=      5-min Rain = 0
KANS 150720Z 16010G15KT 21/17 A2997 RMK A01 T02060168  RH  081%=      5-min Rain = 0
KANS 150725Z 16010G15KT 21/17 A2997 RMK A01 T02050168  RH  081%=      5-min Rain = 0
KANS 150730Z 16009G14KT 20/17 A2998 RMK A01 T02040168  RH  082%=      5-min Rain = 0
KANS 150735Z 16009G14KT 20/17 A2997 RMK A01 T02040169  RH  082%=      5-min Rain = 0
KANS 150740Z 16009KT 20/17 A2997 RMK A01 T02030169  RH  083%=      5-min Rain = 0
KANS 150745Z 17010G15KT 20/17 A2997 RMK A01 T02020169  RH  083%=      5-min Rain = 0
KANS 150750Z 17010KT 20/17 A2997 RMK A01 T02010169  RH  083%=      5-min Rain = 0
KANS 150755Z 16008G13KT 20/17 A2997 RMK A01 T02010169  RH  084%=      5-min Rain = 0
KANS 150800Z 17009G14KT 20/17 A2997 RMK A01 T02000169  RH  084%=      5-min Rain = 0
KANS 150805Z 16010KT 20/17 A2997 RMK A01 T02000170  RH  085%=      5-min Rain = 0
KANS 150810Z 17009G14KT 20/17 A2997 RMK A01 T02000170  RH  085%=      5-min Rain = 0
KANS 150815Z 16008KT 20/17 A2997 RMK A01 T02000170  RH  085%=      5-min Rain = 0
KANS 150820Z 16008KT 20/17 A2997 RMK A01 T01990170  RH  085%=      5-min Rain = 0
KANS 150825Z 16008KT 20/17 A2997 RMK A01 T01980170  RH  086%=      5-min Rain = 0
KANS 150830Z 16009KT 20/17 A2997 RMK A01 T01970170  RH  086%=      5-min Rain = 0
KANS 150835Z 17008KT 20/17 A2997 RMK A01 T01970171  RH  087%=      5-min Rain = 0
KANS 150840Z 16008KT 20/17 A2997 RMK A01 T01960171  RH  087%=      5-min Rain = 0
KANS 150845Z 16008KT 20/17 A2997 RMK A01 T01960171  RH  088%=      5-min Rain = 0
KANS 150850Z 16008KT 20/17 A2997 RMK A01 T01960171  RH  088%=      5-min Rain = 0
KANS 150855Z 16007KT 20/17 A2996 RMK A01 T01950171  RH  088%=      5-min Rain = 0
KANS 150900Z 15007KT 19/17 A2996 RMK A01 T01940170  RH  089%=      5-min Rain = 0
KANS 150905Z 16008KT 19/17 A2997 RMK A01 T01930171  RH  089%=      5-min Rain = 0
KANS 150910Z 16009KT 19/17 A2997 RMK A01 T01940172  RH  090%=      5-min Rain = 0
KANS 150915Z 16008KT 19/17 A2996 RMK A01 T01940173  RH  089%=      5-min Rain = 0
KANS 150920Z 16008KT 19/17 A2996 RMK A01 T01940173  RH  089%=      5-min Rain = 0
KANS 150925Z 16008KT 19/17 A2996 RMK A01 T01940173  RH  090%=      5-min Rain = 0
KANS 150930Z 16008KT 20/17 A2996 RMK A01 T01950174  RH  090%=      5-min Rain = 0
KANS 150935Z 16008KT 20/17 A2996 RMK A01 T01960174  RH  090%=      5-min Rain = 0
KANS 150940Z 16008KT 20/18 A2996 RMK A01 T01960175  RH  089%=      5-min Rain = 0
KANS 150945Z 17009KT 20/18 A2996 RMK A01 T01980176  RH  089%=      5-min Rain = 0
KANS 150950Z 17008G13KT 20/18 A2996 RMK A01 T01990176  RH  089%=      5-min Rain = 0
KANS 150955Z 17010KT 20/18 A2996 RMK A01 T01990176  RH  089%=      5-min Rain = 0
KANS 151000Z 17009KT 20/18 A2996 RMK A01 T02000177  RH  089%=      5-min Rain = 0
KANS 151005Z 17008KT 20/18 A2996 RMK A01 T01990176  RH  089%=      5-min Rain = 0
KANS 151010Z 17008KT 20/18 A2996 RMK A01 T01990177  RH  089%=      5-min Rain = 0
KANS 151015Z 18008KT 20/18 A2996 RMK A01 T01990176  RH  089%=      5-min Rain = 0
KANS 151020Z 17007G12KT 20/18 A2996 RMK A01 T01980175  RH  089%=      5-min Rain = 0
KANS 151025Z 18008G13KT 20/18 A2996 RMK A01 T01980175  RH  089%=      5-min Rain = 0
KANS 151030Z 18008KT 20/18 A2996 RMK A01 T01970175  RH  089%=      5-min Rain = 0
KANS 151035Z 18008KT 20/18 A2996 RMK A01 T01970175  RH  089%=      5-min Rain = 0
KANS 151040Z 18008KT 20/17 A2995 RMK A01 T01960174  RH  089%=      5-min Rain = 0
KANS 151045Z 18008KT 20/17 A2995 RMK A01 T01950174  RH  090%=      5-min Rain = 0
KANS 151050Z 18007KT 20/17 A2995 RMK A01 T01950174  RH  090%=      5-min Rain = 0
KANS 151055Z 19007KT 19/17 A2995 RMK A01 T01940173  RH  090%=      5-min Rain = 0
KANS 151100Z 18007KT 19/17 A2996 RMK A01 T01930172  RH  090%=      5-min Rain = 0
KANS 151105Z 19007KT 19/17 A2996 RMK A01 T01920172  RH  091%=      5-min Rain = 0
KANS 151110Z 19007KT 19/17 A2995 RMK A01 T01910172  RH  091%=      5-min Rain = 0
KANS 151115Z 19007KT 19/17 A2995 RMK A01 T01900171  RH  091%=      5-min Rain = 0
KANS 151120Z 19007KT 19/17 A2995 RMK A01 T01900172  RH  091%=      5-min Rain = 0
KANS 151125Z 19008KT 19/17 A2995 RMK A01 T01910173  RH  091%=      5-min Rain = 0
KANS 151130Z 19008KT 19/17 A2995 RMK A01 T01910173  RH  091%=      5-min Rain = 0
KANS 151135Z 19008KT 19/17 A2995 RMK A01 T01910173  RH  091%=      5-min Rain = 0
KANS 151140Z 19007KT 19/17 A2995 RMK A01 T01920173  RH  091%=      5-min Rain = 0
KANS 151145Z 19007KT 19/17 A2996 RMK A01 T01910173  RH  091%=      5-min Rain = 0
KANS 151150Z 19007KT 19/17 A2996 RMK A01 T01910173  RH  091%=      5-min Rain = 0
KANS 151155Z 19007KT 19/17 A2996 RMK A01 T01900172  RH  091%=      5-min Rain = 0
KANS 151200Z 19007KT 19/17 A2996 RMK A01 T01900172  RH  091%=      5-min Rain = 0
KANS 151205Z 19007KT 19/17 A2996 RMK A01 T01900172  RH  092%=      5-min Rain = 0
KANS 151210Z 19007KT 19/17 A2996 RMK A01 T01900173  RH  092%=      5-min Rain = 0
KANS 151215Z 19007KT 19/17 A2997 RMK A01 T01910173  RH  092%=      5-min Rain = 0
KANS 151220Z 19007KT 19/17 A2997 RMK A01 T01920174  RH  092%=      5-min Rain = 0
KANS 151225Z 19008KT 19/18 A2997 RMK A01 T01930175  RH  092%=      5-min Rain = 0
KANS 151230Z 19007KT 19/18 A2997 RMK A01 T01940176  RH  092%=      5-min Rain = 0
KANS 151235Z 19007KT 19/18 A2997 RMK A01 T01940176  RH  091%=      5-min Rain = 0
KANS 151240Z 19007G12KT 20/18 A2997 RMK A01 T01960177  RH  091%=      5-min Rain = 0
KANS 151245Z 20007KT 20/18 A2997 RMK A01 T01970177  RH  091%=      5-min Rain = 0
KANS 151250Z 20007KT 20/18 A2997 RMK A01 T01980178  RH  090%=      5-min Rain = 0
KANS 151255Z 20007G12KT 20/18 A2997 RMK A01 T02000178  RH  090%=      5-min Rain = 0
KANS 151300Z 20009KT 20/18 A2997 RMK A01 T02010179  RH  089%=      5-min Rain = 0
KANS 151305Z 20008KT 20/18 A2997 RMK A01 T02030179  RH  088%=      5-min Rain = 0
KANS 151310Z 20008KT 21/18 A2997 RMK A01 T02050179  RH  087%=      5-min Rain = 0
KANS 151315Z 20008G13KT 21/18 A2997 RMK A01 T02080180  RH  087%=      5-min Rain = 0
KANS 151320Z 20009KT 21/18 A2998 RMK A01 T02100180  RH  085%=      5-min Rain = 0
KANS 151325Z 21008G13KT 21/18 A2998 RMK A01 T02120180  RH  084%=      5-min Rain = 0
KANS 151330Z 21008G13KT 22/18 A2998 RMK A01 T02150179  RH  082%=      5-min Rain = 0
KANS 151335Z 21009KT 22/18 A2998 RMK A01 T02170178  RH  080%=      5-min Rain = 0
KANS 151340Z 22010KT 22/18 A2998 RMK A01 T02190175  RH  078%=      5-min Rain = 0
KANS 151345Z 22010G17KT 22/18 A2998 RMK A01 T02230175  RH  076%=      5-min Rain = 0
KANS 151350Z 22010KT 23/17 A2998 RMK A01 T02250174  RH  075%=      5-min Rain = 0
KANS 151355Z 22011G16KT 23/17 A2998 RMK A01 T02280172  RH  073%=      5-min Rain = 0
KANS 151400Z 22010G15KT 23/17 A2998 RMK A01 T02300170  RH  071%=      5-min Rain = 0
KANS 151405Z 21009KT 23/17 A2998 RMK A01 T02330169  RH  069%=      5-min Rain = 0
KANS 151410Z 22008KT 24/17 A2998 RMK A01 T02370170  RH  067%=      5-min Rain = 0
KANS 151415Z 22009G14KT 24/17 A2998 RMK A01 T02420168  RH  065%=      5-min Rain = 0
KANS 151420Z 23010KT 24/17 A2998 RMK A01 T02440165  RH  063%=      5-min Rain = 0
KANS 151425Z 24010KT 25/17 A2998 RMK A01 T02450165  RH  062%=      5-min Rain = 0
KANS 151430Z 23010KT 25/16 A2998 RMK A01 T02480163  RH  061%=      5-min Rain = 0
KANS 151435Z 24010KT 25/16 A2999 RMK A01 T02500163  RH  060%=      5-min Rain = 0
KANS 151440Z 24010G15KT 25/16 A2999 RMK A01 T02540160  RH  057%=      5-min Rain = 0
KANS 151445Z 24010G15KT 26/16 A2999 RMK A01 T02570157  RH  055%=      5-min Rain = 0
KANS 151450Z 23009KT 26/16 A2999 RMK A01 T02620156  RH  053%=      5-min Rain = 0
KANS 151455Z 24009KT 27/15 A2999 RMK A01 T02660152  RH  051%=      5-min Rain = 0
KANS 151500Z 23011KT 27/15 A2999 RMK A01 T02690145  RH  047%=      5-min Rain = 0
KANS 151505Z 24007G12KT 27/15 A2999 RMK A01 T02710145  RH  047%=      5-min Rain = 0
KANS 151510Z 24008KT 28/14 A2999 RMK A01 T02770144  RH  045%=      5-min Rain = 0
KANS 151515Z 25008G13KT 28/13 A2999 RMK A01 T02820133  RH  041%=      5-min Rain = 0
KANS 151520Z 24009KT 29/13 A2999 RMK A01 T02850127  RH  039%=      5-min Rain = 0
KANS 151525Z 25009KT 29/12 A2999 RMK A01 T02890123  RH  037%=      5-min Rain = 0
KANS 151530Z 25010KT 29/12 A30 RMK A01 T02920117  RH  034%=      5-min Rain = 0
KANS 151535Z 25009KT 30/12 A30 RMK A01 T02950115  RH  034%=      5-min Rain = 0
KANS 151540Z 27009G14KT 30/12 A30 RMK A01 T02960116  RH  034%=      5-min Rain = 0
KANS 151545Z 26010KT 30/11 A30 RMK A01 T03000110  RH  031%=      5-min Rain = 0
KANS 151550Z 25008KT 30/11 A30 RMK A01 T03010112  RH  032%=      5-min Rain = 0
KANS 151555Z 27008KT 31/10 A30 RMK A01 T03070104  RH  029%=      5-min Rain = 0
KANS 151600Z 28008G13KT 31/10 A30 RMK A01 T03120103  RH  028%=      5-min Rain = 0
KANS 151605Z 29009KT 32/10 A30 RMK A01 T03150097  RH  026%=      5-min Rain = 0
KANS 151610Z 28008KT 32/09 A30 RMK A01 T03150091  RH  025%=      5-min Rain = 0
KANS 151615Z 28008KT 32/09 A30 RMK A01 T03170087  RH  024%=      5-min Rain = 0
KANS 151620Z 29007G12KT 32/09 A30 RMK A01 T03200085  RH  024%=      5-min Rain = 0
KANS 151625Z 25007G12KT 32/09 A2999 RMK A01 T03220089  RH  024%=      5-min Rain = 0
KANS 151630Z 26007KT 32/09 A2999 RMK A01 T03240087  RH  023%=      5-min Rain = 0
KANS 151635Z 26008G13KT 33/08 A2999 RMK A01 T03260080  RH  022%=      5-min Rain = 0
KANS 151640Z 27007KT 33/08 A2999 RMK A01 T03290078  RH  021%=      5-min Rain = 0
KANS 151645Z 26008G14KT 33/07 A2999 RMK A01 T03320070  RH  020%=      5-min Rain = 0
KANS 151650Z 26007KT 33/07 A2999 RMK A01 T03330067  RH  019%=      5-min Rain = 0
KANS 151655Z 26007KT 33/06 A2999 RMK A01 T03340058  RH  018%=      5-min Rain = 0
KANS 151700Z 28008G13KT 34/05 A2999 RMK A01 T03370048  RH  017%=      5-min Rain = 0
KANS 151705Z 28006KT 34/04 A2999 RMK A01 T03380039  RH  016%=      5-min Rain = 0
KANS 151710Z 28006G11KT 34/03 A2999 RMK A01 T03430030  RH  014%=      5-min Rain = 0
KANS 151715Z 25008G13KT 34/04 A2999 RMK A01 T03420036  RH  015%=      5-min Rain = 0
KANS 151720Z 24006KT 34/03 A2999 RMK A01 T03390033  RH  015%=      5-min Rain = 0
KANS 151725Z 27006G11KT 35/03 A2999 RMK A01 T03450025  RH  014%=      5-min Rain = 0
KANS 151730Z 29006G11KT 35/02 A2999 RMK A01 T03490020  RH  013%=      5-min Rain = 0
KANS 151735Z 31007KT 35/02 A2999 RMK A01 T03480020  RH  013%=      5-min Rain = 0
KANS 151740Z 25003KT 35/01 A2999 RMK A01 T03460014  RH  012%=      5-min Rain = 0
KANS 151745Z 28007KT 35/01 A2999 RMK A01 T03500014  RH  012%=      5-min Rain = 0
KANS 151750Z 25005KT 35/01 A2999 RMK A01 T03530006  RH  011%=      5-min Rain = 0
KANS 151755Z 22006KT 35/01 A2998 RMK A01 T03480006  RH  012%=      5-min Rain = 0
KANS 151800Z 22006KT 35/00 A2998 RMK A01 T03490003  RH  011%=      5-min Rain = 0
KANS 151805Z 22005KT 35/M00 A2998 RMK A01 T03491001  RH  011%=      5-min Rain = 0
KANS 151810Z 25005KT 35/M00 A2998 RMK A01 T03521003  RH  011%=      5-min Rain = 0
KANS 151815Z 08002KT 35/M01 A2997 RMK A01 T03521009  RH  010%=      5-min Rain = 0
KANS 151820Z 28006G11KT 36/M01 A2997 RMK A01 T03571007  RH  010%=      5-min Rain = 0
KANS 151825Z 26007G13KT 36/M02 A2997 RMK A01 T03581017  RH  009%=      5-min Rain = 0
KANS 151830Z 27007KT 36/M02 A2997 RMK A01 T03581021  RH  009%=      5-min Rain = 0
KANS 151835Z 26009KT 36/M01 A2997 RMK A01 T03591012  RH  010%=      5-min Rain = 0
KANS 151840Z 28006G12KT 36/M01 A2997 RMK A01 T03591014  RH  009%=      5-min Rain = 0
KANS 151845Z 24008KT 36/M01 A2997 RMK A01 T03561011  RH  010%=      5-min Rain = 0
KANS 151850Z 20003KT 35/M01 A2997 RMK A01 T03541014  RH  010%=      5-min Rain = 0
KANS 151855Z 32005G10KT 35/M01 A2997 RMK A01 T03501013  RH  010%=      5-min Rain = 0
KANS 151900Z 31004KT 35/M01 A2996 RMK A01 T03481012  RH  010%=      5-min Rain = 0
KANS 151905Z 32003KT 35/M01 A2996 RMK A01 T03521009  RH  010%=      5-min Rain = 0
KANS 151910Z 31003KT 36/M01 A2996 RMK A01 T03551008  RH  010%=      5-min Rain = 0
KANS 151915Z 27006KT 36/M01 A2996 RMK A01 T03581009  RH  010%=      5-min Rain = 0
KANS 151920Z 28004G12KT 36/M01 A2996 RMK A01 T03561014  RH  010%=      5-min Rain = 0
KANS 151925Z 20006G14KT 36/M01 A2996 RMK A01 T03601014  RH  009%=      5-min Rain = 0
KANS 151930Z 24011G16KT 36/M01 A2995 RMK A01 T03601006  RH  010%=      5-min Rain = 0
KANS 151935Z 28008G16KT 36/M01 A2995 RMK A01 T03581010  RH  010%=      5-min Rain = 0
KANS 151940Z 25006KT 35/M01 A2995 RMK A01 T03501011  RH  010%=      5-min Rain = 0
KANS 151945Z 23004KT 35/M01 A2995 RMK A01 T03501012  RH  010%=      5-min Rain = 0
KANS 151950Z 25003G8KT 35/M02 A2995 RMK A01 T03501015  RH  010%=      5-min Rain = 0
KANS 151955Z 28003KT 35/M01 A2995 RMK A01 T03501013  RH  010%=      5-min Rain = 0
KANS 152000Z 30006KT 35/M01 A2995 RMK A01 T03531012  RH  010%=      5-min Rain = 0
KANS 152005Z 28006KT 36/M01 A2994 RMK A01 T03611012  RH  009%=      5-min Rain = 0
KANS 152010Z 27010G16KT 36/M01 A2994 RMK A01 T03641014  RH  009%=      5-min Rain = 0
KANS 152015Z 29011G16KT 36/M02 A2994 RMK A01 T03601016  RH  009%=      5-min Rain = 0
KANS 152020Z 25011KT 37/M01 A2994 RMK A01 T03701013  RH  009%=      5-min Rain = 0
KANS 152025Z 22006G11KT 37/M02 A2993 RMK A01 T03671016  RH  009%=      5-min Rain = 0
KANS 152030Z 24011G17KT 37/M01 A2993 RMK A01 T03701011  RH  009%=      5-min Rain = 0
KANS 152035Z 25011G16KT 37/M01 A2993 RMK A01 T03651013  RH  009%=      5-min Rain = 0
KANS 152040Z 26010KT 37/M01 A2993 RMK A01 T03681013  RH  009%=      5-min Rain = 0
KANS 152045Z 27008G13KT 37/M02 A2993 RMK A01 T03711017  RH  009%=      5-min Rain = 0
KANS 152050Z 27010G18KT 37/M01 A2992 RMK A01 T03711013  RH  009%=      5-min Rain = 0
KANS 152055Z 24011KT 37/M01 A2992 RMK A01 T03711012  RH  009%=      5-min Rain = 0
KANS 152100Z 25009KT 37/M02 A2992 RMK A01 T03651016  RH  009%=      5-min Rain = 0
KANS 152105Z 28005KT 35/M02 A2992 RMK A01 T03531019  RH  009%=      5-min Rain = 0
KANS 152110Z 27005KT 35/M02 A2992 RMK A01 T03521020  RH  009%=      5-min Rain = 0
KANS 152115Z 24008G16KT 35/M02 A2992 RMK A01 T03531019  RH  009%=      5-min Rain = 0
KANS 152120Z 25008G20KT 36/M01 A2992 RMK A01 T03621013  RH  009%=      5-min Rain = 0
KANS 152125Z 22005G12KT 36/M02 A2991 RMK A01 T03601017  RH  009%=      5-min Rain = 0
KANS 152130Z 23002KT 36/M02 A2991 RMK A01 T03611022  RH  009%=      5-min Rain = 0
KANS 152135Z 22002KT 37/M02 A299 RMK A01 T03661020  RH  009%=      5-min Rain = 0
KANS 152140Z 19007G13KT 37/M01 A299 RMK A01 T03711014  RH  009%=      5-min Rain = 0
KANS 152145Z 23008G14KT 37/M02 A299 RMK A01 T03711016  RH  009%=      5-min Rain = 0
KANS 152150Z 23008KT 37/M02 A299 RMK A01 T03691018  RH  009%=      5-min Rain = 0
KANS 152155Z 25008G15KT 37/M02 A299 RMK A01 T03701021  RH  008%=      5-min Rain = 0
KANS 152200Z 28007G13KT 37/M02 A299 RMK A01 T03731024  RH  008%=      5-min Rain = 0
KANS 152205Z 25004KT 36/M03 A299 RMK A01 T03641027  RH  008%=      5-min Rain = 0
KANS 152210Z 21003KT 36/M03 A2989 RMK A01 T03641028  RH  008%=      5-min Rain = 0
KANS 152215Z 21003KT 37/M03 A2989 RMK A01 T03661025  RH  008%=      5-min Rain = 0
KANS 152220Z 24005G10KT 36/M02 A2989 RMK A01 T03591017  RH  009%=      5-min Rain = 0
KANS 152225Z 24007KT 36/M02 A2989 RMK A01 T03561018  RH  009%=      5-min Rain = 0
KANS 152230Z 22005KT 35/M02 A2989 RMK A01 T03541015  RH  010%=      5-min Rain = 0
KANS 152235Z 27004KT 36/M02 A2989 RMK A01 T03621019  RH  009%=      5-min Rain = 0
KANS 152240Z 27006KT 36/M02 A2989 RMK A01 T03591021  RH  009%=      5-min Rain = 0
KANS 152245Z 26007KT 35/M02 A2989 RMK A01 T03531022  RH  009%=      5-min Rain = 0
KANS 152250Z 25006KT 35/M02 A2989 RMK A01 T03501021  RH  009%=      5-min Rain = 0
KANS 152255Z 26007G12KT 36/M02 A2989 RMK A01 T03591022  RH  009%=      5-min Rain = 0
KANS 152300Z 23006KT 37/M03 A2988 RMK A01 T03651025  RH  008%=      5-min Rain = 0
KANS 152305Z 22001KT 36/M03 A2988 RMK A01 T03601031  RH  008%=      5-min Rain = 0
KANS 152310Z 21002KT 36/M03 A2988 RMK A01 T03601025  RH  009%=      5-min Rain = 0
KANS 152315Z 21004KT 36/M02 A2988 RMK A01 T03631019  RH  009%=      5-min Rain = 0
KANS 152320Z 23007KT 37/M02 A2988 RMK A01 T03651017  RH  009%=      5-min Rain = 0
KANS 152325Z 28009KT 37/M03 A2988 RMK A01 T03651026  RH  008%=      5-min Rain = 0
KANS 152330Z 28010KT 37/M03 A2987 RMK A01 T03661034  RH  008%=      5-min Rain = 0
KANS 152335Z 26010KT 36/M03 A2987 RMK A01 T03631032  RH  008%=      5-min Rain = 0
KANS 152340Z 26007KT 36/M03 A2987 RMK A01 T03631029  RH  008%=      5-min Rain = 0
KANS 152345Z 27007KT 37/M03 A2988 RMK A01 T03661030  RH  008%=      5-min Rain = 0
KANS 152350Z 28007KT 37/M04 A2988 RMK A01 T03661035  RH  008%=      5-min Rain = 0
KANS 152355Z 32005KT 36/M04 A2988 RMK A01 T03631036  RH  008%=      5-min Rain = 0
KANS 160000Z 30003KT 36/M04 A2988 RMK A01 T03581037  RH  008%=      5-min Rain = 0
KANS 160005Z 29003KT 35/M03 A2988 RMK A01 T03541034  RH  008%=      5-min Rain = 0
KANS 160010Z 10012G23KT 33/05 A299 RMK A01 T03330054  RH  019%=      5-min Rain = 0
KANS 160015Z 10014KT 31/08 A299 RMK A01 T03060080  RH  025%=      5-min Rain = 0
KANS 160020Z 10014KT 30/08 A299 RMK A01 T03010078  RH  025%=      5-min Rain = 0
KANS 160025Z 11015G20KT 30/08 A299 RMK A01 T03000076  RH  025%=      5-min Rain = 0
KANS 160030Z 11016G22KT 30/07 A299 RMK A01 T02980071  RH  024%=      5-min Rain = 0
KANS 160035Z 11015G22KT 30/07 A299 RMK A01 T02960066  RH  024%=      5-min Rain = 0
KANS 160040Z 11014G20KT 30/06 A2991 RMK A01 T02960063  RH  023%=      5-min Rain = 0
KANS 160045Z 12015KT 30/06 A2991 RMK A01 T02970061  RH  023%=      5-min Rain = 0
KANS 160050Z 11013KT 30/06 A2991 RMK A01 T02970059  RH  023%=      5-min Rain = 0
KANS 160055Z 11012G18KT 30/06 A2991 RMK A01 T02980055  RH  022%=      5-min Rain = 0
KANS 160100Z 11012KT 30/05 A2991 RMK A01 T02980053  RH  022%=      5-min Rain = 0
KANS 160105Z 11010G15KT 30/05 A2991 RMK A01 T02980052  RH  021%=      5-min Rain = 0
KANS 160110Z 11013G20KT 30/05 A2991 RMK A01 T02960053  RH  022%=      5-min Rain = 0
KANS 160115Z 11014G19KT 29/06 A2991 RMK A01 T02940059  RH  023%=      5-min Rain = 0
KANS 160120Z 12013G19KT 29/07 A2992 RMK A01 T02920065  RH  024%=      5-min Rain = 0
KANS 160125Z 12015G24KT 29/06 A2992 RMK A01 T02880062  RH  024%=      5-min Rain = 0
KANS 160130Z 12014G19KT 29/06 A2992 RMK A01 T02860060  RH  024%=      5-min Rain = 0
KANS 160135Z 12011KT 28/06 A2992 RMK A01 T02840061  RH  025%=      5-min Rain = 0
KANS 160140Z 12011G17KT 28/06 A2992 RMK A01 T02810062  RH  025%=      5-min Rain = 0
KANS 160145Z 12012G19KT 28/07 A2992 RMK A01 T02800066  RH  026%=      5-min Rain = 0
KANS 160150Z 12009KT 28/07 A2992 RMK A01 T02780066  RH  026%=      5-min Rain = 0
KANS 160155Z 12008G14KT 28/07 A2992 RMK A01 T02750067  RH  027%=      5-min Rain = 0
KANS 160200Z 11011G16KT 27/07 A2992 RMK A01 T02730074  RH  029%=      5-min Rain = 0
KANS 160205Z 10010KT 27/08 A2992 RMK A01 T02710078  RH  030%=      5-min Rain = 0
KANS 160210Z 11009G14KT 27/08 A2992 RMK A01 T02680079  RH  031%=      5-min Rain = 0
KANS 160215Z 11009KT 27/08 A2992 RMK A01 T02660079  RH  031%=      5-min Rain = 0
KANS 160220Z 10009KT 26/08 A2992 RMK A01 T02630080  RH  032%=      5-min Rain = 0
KANS 160225Z 11008G13KT 26/08 A2992 RMK A01 T02620081  RH  032%=      5-min Rain = 0
KANS 160230Z 11009KT 26/08 A2992 RMK A01 T02600083  RH  033%=      5-min Rain = 0
KANS 160235Z 11008KT 26/09 A2992 RMK A01 T02580085  RH  034%=      5-min Rain = 0
KANS 160240Z 11008G13KT 26/09 A2992 RMK A01 T02570087  RH  035%=      5-min Rain = 0
KANS 160245Z 12008KT 26/09 A2992 RMK A01 T02550089  RH  035%=      5-min Rain = 0
KANS 160250Z 12009KT 25/10 A2993 RMK A01 T02540095  RH  037%=      5-min Rain = 0
KANS 160255Z 10008G13KT 25/10 A2993 RMK A01 T02530098  RH  038%=      5-min Rain = 0
KANS 160300Z 09008KT 25/10 A2994 RMK A01 T02520100  RH  039%=      5-min Rain = 0
KANS 160305Z 10008KT 25/10 A2994 RMK A01 T02510102  RH  040%=      5-min Rain = 0
KANS 160310Z 10008KT 25/10 A2994 RMK A01 T02500104  RH  040%=      5-min Rain = 0
KANS 160315Z 08008KT 25/11 A2995 RMK A01 T02480105  RH  041%=      5-min Rain = 0
KANS 160320Z 09009KT 25/11 A2995 RMK A01 T02470107  RH  042%=      5-min Rain = 0
KANS 160325Z 10008KT 25/11 A2995 RMK A01 T02460108  RH  043%=      5-min Rain = 0
KANS 160330Z 09008KT 25/11 A2995 RMK A01 T02460107  RH  042%=      5-min Rain = 0
KANS 160335Z 09009KT 25/11 A2996 RMK A01 T02460107  RH  042%=      5-min Rain = 0
KANS 160340Z 09009KT 25/11 A2996 RMK A01 T02460106  RH  042%=      5-min Rain = 0
KANS 160345Z 10010KT 25/11 A2996 RMK A01 T02450107  RH  043%=      5-min Rain = 0
KANS 160350Z 10011KT 24/11 A2996 RMK A01 T02440107  RH  043%=      5-min Rain = 0
KANS 160355Z 10010KT 24/11 A2996 RMK A01 T02430107  RH  043%=      5-min Rain = 0
KANS 160400Z 10010KT 24/11 A2997 RMK A01 T02420106  RH  043%=      5-min Rain = 0
KANS 160405Z 10009KT 24/11 A2997 RMK A01 T02410106  RH  043%=      5-min Rain = 0
KANS 160410Z 11009KT 24/11 A2997 RMK A01 T02400105  RH  043%=      5-min Rain = 0
KANS 160415Z 11009KT 24/10 A2997 RMK A01 T02390104  RH  043%=      5-min Rain = 0
KANS 160420Z 11009KT 24/10 A2997 RMK A01 T02390103  RH  043%=      5-min Rain = 0
KANS 160425Z 11009KT 24/10 A2997 RMK A01 T02380102  RH  043%=      5-min Rain = 0
KANS 160430Z 11010G16KT 24/10 A2997 RMK A01 T02380101  RH  043%=      5-min Rain = 0
KANS 160435Z 12010KT 24/10 A2997 RMK A01 T02370100  RH  043%=      5-min Rain = 0
KANS 160440Z 11011KT 24/10 A2997 RMK A01 T02370100  RH  043%=      5-min Rain = 0
KANS 160445Z 11010KT 24/10 A2998 RMK A01 T02360100  RH  043%=      5-min Rain = 0
KANS 160450Z 11010G15KT 24/10 A2998 RMK A01 T02360100  RH  043%=      5-min Rain = 0
KANS 160455Z 09012G17KT 24/10 A2998 RMK A01 T02350101  RH  043%=      5-min Rain = 0

Page generated in 0.0094 seconds.